Time;durP1;ratioP1;P1;durP2;ratioP2;P2;SDS_P1;SDS_P2;PMS_P1;PMS_P2;Temp;Humidity;BMP_temperature;BMP_pressure;BME280_temperature;BME280_humidity;BME280_pressure;Samples;Min_cycle;Max_cycle;Signal;HPM_P1;HPM_P2
2022/05/26 00:02:05;;;;;;;3.15;2.10;;;17.60;68.30;;;;;;5009068;28;20026;-65
2022/05/26 00:04:30;;;;;;;4.07;2.20;;;17.50;68.10;;;;;;5007152;28;20398;-65
2022/05/26 00:06:56;;;;;;;3.42;1.92;;;17.50;68.30;;;;;;5011491;28;20040;-66
2022/05/26 00:09:22;;;;;;;3.75;2.40;;;17.40;68.80;;;;;;4999322;28;20043;-66
2022/05/26 00:11:48;;;;;;;3.35;1.75;;;17.40;68.40;;;;;;4992268;28;20034;-65
2022/05/26 00:14:14;;;;;;;3.80;1.70;;;17.40;68.50;;;;;;5003325;28;20046;-66
2022/05/26 00:16:42;;;;;;;3.67;1.75;;;17.40;68.50;;;;;;4993461;28;20393;-66
2022/05/26 00:19:08;;;;;;;2.80;1.98;;;17.30;68.70;;;;;;5011411;28;20029;-65
2022/05/26 00:21:34;;;;;;;2.95;1.85;;;17.40;68.70;;;;;;5007172;28;20510;-66
2022/05/26 00:24:00;;;;;;;4.03;1.83;;;17.40;68.70;;;;;;4999762;28;20045;-65
2022/05/26 00:26:26;;;;;;;2.65;1.80;;;17.30;68.50;;;;;;4996389;28;20022;-65
2022/05/26 00:28:51;;;;;;;2.38;1.90;;;17.30;68.60;;;;;;5000690;28;20030;-65
2022/05/26 00:31:17;;;;;;;3.30;2.33;;;17.30;68.70;;;;;;4995357;28;20121;-65
2022/05/26 00:33:43;;;;;;;3.35;1.90;;;17.30;68.60;;;;;;5014901;28;20029;-66
2022/05/26 00:36:11;;;;;;;4.93;1.90;;;17.30;68.60;;;;;;4994012;28;20451;-66
2022/05/26 00:38:36;;;;;;;2.83;2.20;;;17.30;68.70;;;;;;4992855;28;20376;-65
2022/05/26 00:41:05;;;;;;;4.93;1.90;;;17.30;68.60;;;;;;5005227;28;20026;-66
2022/05/26 00:43:30;;;;;;;3.22;2.25;;;17.30;68.80;;;;;;5006605;28;20072;-65
2022/05/26 00:46:06;;;;;;;2.40;1.70;;;17.20;68.80;;;;;;4996136;28;20058;-64
2022/05/26 00:48:42;;;;;;;2.92;2.03;;;17.30;68.90;;;;;;4992384;28;20030;-65
2022/05/26 00:51:10;;;;;;;2.83;1.70;;;17.20;68.90;;;;;;5006498;28;20026;-66
2022/05/26 00:53:44;;;;;;;4.00;2.00;;;17.20;69.00;;;;;;4999624;28;20037;-66
2022/05/26 00:56:37;;;;;;;2.95;1.92;;;17.20;69.10;;;;;;5006938;28;20029;-67
2022/05/26 00:59:25;;;;;;;2.65;1.70;;;17.20;69.10;;;;;;4995706;28;20048;-67
2022/05/26 01:01:51;;;;;;;4.00;1.90;;;17.20;69.30;;;;;;4990850;28;20030;-66
2022/05/26 01:04:20;;;;;;;2.40;1.70;;;17.20;69.20;;;;;;4998632;28;20042;-66
2022/05/26 01:06:51;;;;;;;2.47;1.77;;;17.20;69.30;;;;;;4997875;28;20034;-67
2022/05/26 01:09:17;;;;;;;2.95;1.85;;;17.20;69.40;;;;;;4998109;28;20056;-66
2022/05/26 01:11:44;;;;;;;2.88;1.85;;;17.20;69.40;;;;;;4997328;28;20026;-66
2022/05/26 01:14:14;;;;;;;3.05;1.90;;;17.20;69.40;;;;;;4998770;28;20101;-66
2022/05/26 01:17:08;;;;;;;2.58;1.42;;;17.20;69.40;;;;;;5011301;28;20061;-66
2022/05/26 01:20:04;;;;;;;2.90;1.50;;;17.20;69.40;;;;;;5008523;28;20041;-66
2022/05/26 01:22:48;;;;;;;;;;;17.20;69.30;;;;;;5013114;28;20021;-66
2022/05/26 01:26:02;;;;;;;2.33;1.40;;;17.20;69.00;;;;;;5009324;28;19917;-66
2022/05/26 01:28:52;;;;;;;2.20;1.50;;;17.20;69.20;;;;;;4994610;28;20189;-66
2022/05/26 01:31:38;;;;;;;3.25;1.70;;;17.20;69.20;;;;;;4995867;28;20034;-66
2022/05/26 01:34:07;;;;;;;2.08;1.55;;;17.20;69.20;;;;;;4994617;28;20113;-66
2022/05/26 01:37:01;;;;;;;3.58;1.83;;;17.20;69.20;;;;;;5011478;28;20064;-66
2022/05/26 01:39:43;;;;;;;4.22;1.73;;;17.30;69.30;;;;;;5012463;28;20085;-66
2022/05/26 01:42:18;;;;;;;2.63;1.65;;;17.30;69.40;;;;;;4995888;28;20101;-66
2022/05/26 01:45:05;;;;;;;2.95;1.85;;;17.30;69.30;;;;;;5008052;28;20041;-65
2022/05/26 01:47:43;;;;;;;2.00;1.35;;;17.30;69.40;;;;;;5000119;28;20034;-66
2022/05/26 01:50:30;;;;;;;2.03;1.48;;;17.30;69.40;;;;;;4998522;28;20026;-65
2022/05/26 01:53:08;;;;;;;2.28;1.67;;;17.30;69.40;;;;;;5015165;28;20041;-66
2022/05/26 01:56:13;;;;;;;3.00;1.70;;;17.30;69.30;;;;;;5013536;28;20452;-65
2022/05/26 01:58:43;;;;;;;2.43;1.50;;;17.30;69.10;;;;;;5014174;28;20037;-65
2022/05/26 02:01:13;;;;;;;3.85;1.48;;;17.40;69.20;;;;;;5011811;28;20113;-65
2022/05/26 02:03:43;;;;;;;2.42;1.33;;;17.40;69.00;;;;;;4995287;28;20035;-66
2022/05/26 02:06:24;;;;;;;2.70;1.75;;;17.40;68.90;;;;;;5013045;28;20034;-65
2022/05/26 02:09:05;;;;;;;1.95;1.40;;;17.40;69.30;;;;;;5014374;28;20038;-65
2022/05/26 02:11:31;;;;;;;3.85;1.50;;;17.40;68.70;;;;;;5012237;28;20057;-66
2022/05/26 02:14:05;;;;;;;3.55;1.48;;;17.50;68.60;;;;;;5014734;28;20129;-65
2022/05/26 02:16:43;;;;;;;1.65;1.23;;;17.50;68.50;;;;;;5012572;28;20029;-65
2022/05/26 02:19:19;;;;;;;1.38;1.27;;;17.50;68.50;;;;;;5010233;28;20034;-65
2022/05/26 02:22:07;;;;;;;2.97;1.38;;;17.60;68.30;;;;;;4995042;28;20513;-65
2022/05/26 02:24:38;;;;;;;2.78;1.42;;;17.60;68.20;;;;;;5003627;28;20045;-66
2022/05/26 02:27:05;;;;;;;2.00;1.45;;;17.60;68.00;;;;;;5014206;28;20113;-66
2022/05/26 02:32:21;;;;;;;3.55;1.60;;;17.60;67.90;;;;;;5014227;28;20037;-66
2022/05/26 02:34:49;;;;;;;2.05;1.20;;;17.70;67.70;;;;;;5007805;28;20027;-66
2022/05/26 02:37:17;;;;;;;2.40;1.75;;;17.70;67.80;;;;;;5003256;28;20084;-66
2022/05/26 02:39:42;;;;;;;2.05;1.20;;;17.70;67.70;;;;;;5009265;28;20018;-66
2022/05/26 02:42:09;;;;;;;2.33;1.35;;;17.70;67.50;;;;;;4994611;28;20028;-66
2022/05/26 02:44:35;;;;;;;2.33;1.52;;;17.70;67.60;;;;;;4995257;28;20038;-66
2022/05/26 02:47:24;;;;;;;1.77;1.20;;;17.70;67.40;;;;;;5012366;28;20072;-66
2022/05/26 02:50:02;;;;;;;1.95;1.35;;;17.70;67.30;;;;;;5009423;28;20088;-65
2022/05/26 02:52:47;;;;;;;2.05;1.42;;;17.70;67.30;;;;;;4994445;28;20034;-65
2022/05/26 02:55:17;;;;;;;;;;;17.70;67.10;;;;;;5001780;28;20425;-65
2022/05/26 02:58:02;;;;;;;3.40;1.40;;;17.70;67.20;;;;;;5011662;28;20016;-66
2022/05/26 03:00:43;;;;;;;5.13;1.60;;;17.80;67.30;;;;;;5003125;28;20137;-66
2022/05/26 03:03:18;;;;;;;3.28;1.40;;;17.80;67.20;;;;;;5008566;28;20142;-66
2022/05/26 03:05:53;;;;;;;;;;;17.80;67.30;;;;;;4994303;28;20449;-65
2022/05/26 03:08:21;;;;;;;;;;;17.80;67.20;;;;;;4994727;28;20365;-66
2022/05/26 03:10:53;;;;;;;2.58;1.00;;;17.80;67.20;;;;;;4994911;28;20365;-66
2022/05/26 03:13:19;;;;;;;2.03;1.30;;;17.80;66.90;;;;;;4998357;28;20034;-65
2022/05/26 03:15:45;;;;;;;2.30;1.30;;;17.90;67.00;;;;;;5012362;28;20029;-66
2022/05/26 03:18:11;;;;;;;2.60;1.35;;;17.90;66.90;;;;;;5010435;28;20062;-66
2022/05/26 03:20:37;;;;;;;1.75;1.27;;;17.90;66.80;;;;;;5004985;28;20357;-66
2022/05/26 03:23:04;;;;;;;6.38;1.33;;;18.00;66.90;;;;;;5004043;28;20501;-66
2022/05/26 03:25:30;;;;;;;2.50;1.00;;;18.00;66.80;;;;;;5003215;28;20061;-66
2022/05/26 03:27:55;;;;;;;1.73;1.30;;;18.10;66.80;;;;;;5013462;28;20065;-65
2022/05/26 03:30:21;;;;;;;1.90;1.20;;;18.10;66.80;;;;;;5011930;28;20030;-65
2022/05/26 03:32:46;;;;;;;2.85;1.10;;;18.10;66.70;;;;;;5013365;28;20061;-66
2022/05/26 03:40:46;;;;;;;1.75;1.20;;;18.30;66.80;;;;;;5005492;28;20441;-65
2022/05/26 03:43:13;;;;;;;4.82;1.73;;;18.30;66.90;;;;;;4999202;28;20144;-66
2022/05/26 03:45:38;;;;;;;3.13;1.35;;;18.30;67.00;;;;;;5004616;28;20409;-66
2022/05/26 03:48:05;;;;;;;3.75;2.00;;;18.30;67.00;;;;;;5011570;28;20022;-66
2022/05/26 03:50:31;;;;;;;2.08;1.30;;;18.30;66.90;;;;;;5004134;28;20498;-66
2022/05/26 03:52:57;;;;;;;4.22;1.30;;;18.30;66.80;;;;;;5013142;28;20059;-67
2022/05/26 03:55:23;;;;;;;1.48;1.20;;;18.30;66.90;;;;;;5010424;28;20026;-67
2022/05/26 03:57:49;;;;;;;1.85;1.33;;;18.40;67.10;;;;;;4996737;28;20034;-67
2022/05/26 04:00:18;;;;;;;4.38;1.48;;;18.40;67.00;;;;;;5001658;28;20032;-67
2022/05/26 04:02:43;;;;;;;1.75;1.02;;;18.50;66.80;;;;;;5011462;28;20029;-66
2022/05/26 04:05:11;;;;;;;2.60;1.40;;;18.50;66.80;;;;;;5003344;28;20034;-65
2022/05/26 04:07:37;;;;;;;3.10;1.40;;;18.50;66.90;;;;;;4993397;28;20038;-66
2022/05/26 04:10:04;;;;;;;3.55;1.30;;;18.50;66.80;;;;;;4999059;28;20124;-66
2022/05/26 04:12:29;;;;;;;2.83;1.33;;;18.50;67.00;;;;;;5001771;28;20088;-66
2022/05/26 04:14:55;;;;;;;1.30;1.10;;;18.60;66.90;;;;;;4997932;28;20038;-66
2022/05/26 04:17:20;;;;;;;1.85;1.27;;;18.60;67.00;;;;;;5003498;28;20029;-66
2022/05/26 04:19:46;;;;;;;2.50;1.17;;;18.60;66.80;;;;;;4993216;28;20026;-66
2022/05/26 04:22:23;;;;;;;3.70;1.33;;;18.70;67.20;;;;;;4992965;28;20037;-66
2022/05/26 04:24:53;;;;;;;1.67;1.33;;;18.70;67.20;;;;;;5004369;28;20113;-66
2022/05/26 04:27:21;;;;;;;1.23;1.00;;;18.70;67.30;;;;;;4993054;28;20470;-66
2022/05/26 04:29:47;;;;;;;1.45;1.20;;;18.80;67.40;;;;;;5004079;28;20084;-66
2022/05/26 04:32:13;;;;;;;3.17;1.40;;;18.80;67.30;;;;;;5011761;28;20425;-66
2022/05/26 04:34:39;;;;;;;3.20;1.40;;;18.80;67.30;;;;;;5002796;28;20029;-66
2022/05/26 04:37:05;;;;;;;3.28;1.50;;;18.90;67.40;;;;;;5012251;28;20030;-66
2022/05/26 04:39:31;;;;;;;3.63;1.30;;;18.90;67.40;;;;;;5009763;28;20026;-66
2022/05/26 04:41:59;;;;;;;12.70;1.98;;;19.00;67.50;;;;;;5007845;28;20033;-66
2022/05/26 04:44:28;;;;;;;3.72;1.40;;;19.00;67.40;;;;;;4992901;28;20045;-66
2022/05/26 04:46:54;;;;;;;2.08;1.30;;;19.00;68.00;;;;;;4993561;28;20026;-66
2022/05/26 04:49:19;;;;;;;1.55;1.27;;;19.10;68.00;;;;;;5002752;28;20038;-66
2022/05/26 04:51:45;;;;;;;5.72;1.63;;;19.10;67.60;;;;;;4992245;28;20089;-66
2022/05/26 04:54:10;;;;;;;3.20;1.50;;;19.20;67.80;;;;;;4993741;28;20029;-66
2022/05/26 04:56:36;;;;;;;2.08;1.60;;;19.20;67.70;;;;;;4996682;28;20036;-66
2022/05/26 04:59:04;;;;;;;1.60;1.30;;;19.20;67.60;;;;;;4995144;28;20077;-66
2022/05/26 05:01:30;;;;;;;1.58;1.33;;;19.30;67.90;;;;;;4993658;28;20033;-66
2022/05/26 05:03:55;;;;;;;2.28;1.30;;;19.30;67.90;;;;;;4990697;28;20022;-66
2022/05/26 05:06:21;;;;;;;2.03;1.52;;;19.30;68.00;;;;;;4994021;28;20083;-65
2022/05/26 05:08:47;;;;;;;2.70;1.65;;;19.40;68.20;;;;;;5010946;28;20033;-65
2022/05/26 05:11:12;;;;;;;3.22;1.70;;;19.40;68.10;;;;;;5010190;28;20496;-65
2022/05/26 05:13:40;;;;;;;3.05;1.40;;;19.50;68.10;;;;;;5010825;28;20037;-65
2022/05/26 05:16:12;;;;;;;3.67;1.83;;;19.50;68.10;;;;;;5007564;28;20033;-65
2022/05/26 05:18:37;;;;;;;1.88;1.42;;;19.50;68.50;;;;;;5010126;28;20041;-65
2022/05/26 05:21:07;;;;;;;3.90;1.50;;;19.50;68.00;;;;;;5009828;28;20026;-66
2022/05/26 05:23:39;;;;;;;2.90;1.60;;;19.60;67.90;;;;;;4994083;28;20116;-66
2022/05/26 05:26:08;;;;;;;1.85;1.50;;;19.60;68.00;;;;;;4991822;28;20101;-66
2022/05/26 05:28:37;;;;;;;4.20;1.70;;;19.50;68.00;;;;;;5008941;28;20110;-66
2022/05/26 05:31:11;;;;;;;3.35;1.30;;;19.50;67.90;;;;;;5010059;28;20351;-66
2022/05/26 05:33:43;;;;;;;2.40;1.35;;;19.40;68.00;;;;;;5011542;28;20163;-65
2022/05/26 05:36:16;;;;;;;2.10;1.30;;;19.40;68.30;;;;;;5008317;28;20359;-67
2022/05/26 05:38:43;;;;;;;1.65;1.30;;;19.40;68.90;;;;;;5011402;28;20033;-65
2022/05/26 05:41:09;;;;;;;3.90;1.67;;;19.30;68.70;;;;;;5009585;28;20033;-66
2022/05/26 05:43:35;;;;;;;2.65;1.33;;;19.30;69.00;;;;;;5001946;28;20375;-67
2022/05/26 05:46:06;;;;;;;2.65;1.60;;;19.30;69.30;;;;;;5001043;28;20030;-67
2022/05/26 05:48:32;;;;;;;6.13;2.05;;;19.40;69.60;;;;;;4998598;28;20038;-67
2022/05/26 05:50:57;;;;;;;2.10;1.50;;;19.40;69.80;;;;;;4996643;28;20022;-65
2022/05/26 05:53:23;;;;;;;2.28;1.65;;;19.50;69.90;;;;;;5005098;28;20022;-73
2022/05/26 05:55:48;;;;;;;2.30;1.50;;;19.60;70.00;;;;;;4996950;28;20057;-72
2022/05/26 05:58:14;;;;;;;7.43;2.33;;;19.70;70.00;;;;;;4996725;28;20034;-71
2022/05/26 06:00:42;;;;;;;5.70;2.35;;;19.70;69.80;;;;;;5001084;28;20022;-70
2022/05/26 06:03:08;;;;;;;5.00;1.77;;;19.90;69.90;;;;;;5005638;28;20018;-69
2022/05/26 06:05:34;;;;;;;2.60;1.85;;;20.00;69.90;;;;;;5009644;28;20042;-70
2022/05/26 06:08:00;;;;;;;4.78;2.20;;;20.10;69.80;;;;;;5000928;28;20099;-70
2022/05/26 06:10:26;;;;;;;3.90;1.98;;;20.10;69.50;;;;;;4994300;28;20081;-70
2022/05/26 06:12:51;;;;;;;3.50;1.92;;;20.20;69.30;;;;;;5020535;28;20021;-70
2022/05/26 06:15:18;;;;;;;5.15;2.08;;;20.20;69.20;;;;;;5009469;28;20118;-70
2022/05/26 06:17:43;;;;;;;3.08;1.83;;;20.20;69.30;;;;;;5013978;28;20057;-70
2022/05/26 06:20:10;;;;;;;2.78;1.90;;;20.20;69.10;;;;;;5005525;28;20073;-72
2022/05/26 06:22:39;;;;;;;3.30;2.03;;;20.30;69.30;;;;;;5011655;28;20026;-71
2022/05/26 06:25:05;;;;;;;4.60;2.00;;;20.30;69.20;;;;;;5003377;28;20033;-70
2022/05/26 06:30:18;;;;;;;3.47;2.10;;;20.30;69.10;;;;;;5010717;28;20049;-72
2022/05/26 06:38:14;;;;;;;3.20;1.92;;;20.50;69.10;;;;;;4995984;28;20085;-70
2022/05/26 06:40:40;;;;;;;4.72;2.13;;;20.50;69.10;;;;;;5003376;28;20034;-70
2022/05/26 06:43:05;;;;;;;3.88;2.10;;;20.40;69.10;;;;;;5013442;28;20033;-71
2022/05/26 06:45:31;;;;;;;3.38;2.25;;;20.50;69.40;;;;;;5003290;28;20440;-70
2022/05/26 06:47:56;;;;;;;3.72;1.98;;;20.50;69.30;;;;;;5015798;28;20032;-70
2022/05/26 06:50:22;;;;;;;5.25;2.42;;;20.50;69.10;;;;;;4991747;28;20108;-70
2022/05/26 06:52:48;;;;;;;4.30;2.13;;;20.60;69.20;;;;;;5007718;28;20026;-70
2022/05/26 06:55:13;;;;;;;5.43;2.20;;;20.60;69.20;;;;;;5012923;28;20025;-70
2022/05/26 06:57:39;;;;;;;4.70;2.63;;;20.60;68.90;;;;;;5001684;28;20124;-70
2022/05/26 07:00:06;;;;;;;4.93;2.15;;;20.50;68.80;;;;;;5003775;28;20025;-70
2022/05/26 07:02:31;;;;;;;4.18;2.00;;;20.50;69.10;;;;;;5021408;28;20065;-70
2022/05/26 07:04:57;;;;;;;8.80;2.53;;;20.40;69.20;;;;;;5006944;28;20807;-69
2022/05/26 07:07:25;;;;;;;3.30;2.00;;;20.50;69.40;;;;;;5023054;28;20024;-70
2022/05/26 07:09:53;;;;;;;3.22;1.80;;;20.50;69.70;;;;;;5007944;28;20058;-67
2022/05/26 07:12:19;;;;;;;3.63;2.05;;;20.50;69.90;;;;;;4999684;28;20030;-71
2022/05/26 07:14:44;;;;;;;6.93;2.22;;;20.40;69.80;;;;;;5012792;28;20061;-73
2022/05/26 07:17:10;;;;;;;5.22;2.25;;;20.40;70.40;;;;;;5018145;28;20046;-69
2022/05/26 07:19:37;;;;;;;2.42;2.20;;;20.40;70.40;;;;;;5021367;28;20033;-70
2022/05/26 07:22:03;;;;;;;12.70;3.58;;;20.40;70.30;;;;;;5028070;28;20042;-70
2022/05/26 07:24:28;;;;;;;3.47;2.22;;;20.30;70.20;;;;;;5023168;28;20049;-70
2022/05/26 07:26:54;;;;;;;5.43;2.80;;;20.30;70.20;;;;;;5021033;28;20030;-70
2022/05/26 07:29:20;;;;;;;3.83;2.40;;;20.20;70.20;;;;;;5007395;28;20232;-69
2022/05/26 07:31:46;;;;;;;3.17;2.05;;;20.10;70.50;;;;;;5017615;28;20026;-69
2022/05/26 07:34:11;;;;;;;3.20;2.28;;;20.00;70.60;;;;;;5008592;28;20061;-71
2022/05/26 07:42:11;;;;;;;;;;;19.70;73.00;;;;;;5005416;28;20176;-70
2022/05/26 07:44:40;;;;;;;3.15;2.15;;;19.50;72.50;;;;;;5012777;28;19920;-70
2022/05/26 07:47:07;;;;;;;4.88;2.88;;;19.40;74.60;;;;;;4996220;28;20381;-71
2022/05/26 07:49:38;;;;;;;6.50;3.40;;;19.30;76.00;;;;;;4998571;28;20033;-70
2022/05/26 07:52:04;;;;;;;4.28;2.67;;;19.20;76.80;;;;;;5008336;28;20030;-70
2022/05/26 07:54:30;;;;;;;4.43;3.13;;;19.20;77.90;;;;;;5005772;28;20043;-70
2022/05/26 07:56:56;;;;;;;4.40;3.30;;;19.10;78.40;;;;;;5009152;28;20396;-70
2022/05/26 07:59:22;;;;;;;5.00;2.85;;;19.10;79.10;;;;;;5008020;28;20120;-70
2022/05/26 08:01:48;;;;;;;5.47;3.53;;;19.10;79.80;;;;;;4993881;28;20450;-69
2022/05/26 08:04:15;;;;;;;4.05;2.90;;;19.10;80.40;;;;;;5004596;28;20046;-70
2022/05/26 08:06:46;;;;;;;3.50;3.00;;;19.20;80.80;;;;;;5008608;28;20030;-70
2022/05/26 08:09:21;;;;;;;4.38;3.10;;;19.40;81.20;;;;;;5009179;28;20050;-70
2022/05/26 08:11:47;;;;;;;3.58;2.90;;;19.40;81.30;;;;;;4996197;28;20040;-70
2022/05/26 08:14:13;;;;;;;5.07;2.90;;;19.50;81.20;;;;;;4999823;28;20541;-73
2022/05/26 08:16:39;;;;;;;5.28;3.00;;;19.70;81.20;;;;;;5011411;28;20029;-72
2022/05/26 08:19:06;;;;;;;4.82;3.35;;;19.70;81.10;;;;;;5008593;28;20125;-69
2022/05/26 08:21:32;;;;;;;3.88;2.42;;;19.90;81.40;;;;;;4999661;28;20219;-70
2022/05/26 08:23:58;;;;;;;4.07;2.55;;;20.00;81.10;;;;;;5016517;28;20108;-70
2022/05/26 08:26:23;;;;;;;4.50;2.50;;;20.20;80.70;;;;;;5003419;28;20072;-70
2022/05/26 08:28:49;;;;;;;3.20;2.63;;;20.30;80.60;;;;;;5002446;28;20046;-70
2022/05/26 08:31:15;;;;;;;3.38;2.47;;;20.40;80.10;;;;;;5000195;28;20026;-69
2022/05/26 08:33:41;;;;;;;2.95;2.40;;;20.60;79.50;;;;;;5001377;28;20433;-69
2022/05/26 08:36:11;;;;;;;3.35;2.55;;;20.60;79.10;;;;;;5002880;28;20037;-70
2022/05/26 08:38:37;;;;;;;3.10;2.28;;;20.70;78.70;;;;;;5012136;28;20127;-70
2022/05/26 08:41:04;;;;;;;2.17;1.80;;;20.80;78.50;;;;;;5002790;28;20429;-70
2022/05/26 08:43:45;;;;;;;4.22;2.17;;;20.90;77.50;;;;;;5007137;28;20030;-70
2022/05/26 08:46:16;;;;;;;2.50;1.90;;;20.90;77.00;;;;;;5011983;28;20072;-69
2022/05/26 08:49:11;;;;;;;2.35;1.67;;;20.90;76.40;;;;;;5011910;28;20113;-70
2022/05/26 08:51:53;;;;;;;6.38;1.60;;;20.90;76.00;;;;;;5011159;28;20026;-70
2022/05/26 08:54:27;;;;;;;2.33;1.60;;;20.80;75.90;;;;;;5012160;28;20377;-70
2022/05/26 08:56:55;;;;;;;2.10;1.55;;;20.80;76.10;;;;;;5006780;28;20038;-70
2022/05/26 08:59:25;;;;;;;2.15;1.65;;;20.80;75.60;;;;;;5009261;28;20416;-71
2022/05/26 09:02:01;;;;;;;4.15;1.60;;;20.90;75.00;;;;;;5011124;28;20026;-70
2022/05/26 09:04:28;;;;;;;1.80;1.60;;;21.00;74.70;;;;;;5011713;28;20045;-68
2022/05/26 09:12:59;;;;;;;1.50;1.20;;;21.20;73.60;;;;;;5011608;28;20433;-70
2022/05/26 09:15:26;;;;;;;3.00;1.33;;;21.30;73.30;;;;;;5010691;28;20029;-69
2022/05/26 09:17:52;;;;;;;2.60;1.42;;;21.30;73.20;;;;;;5011601;28;20483;-71
2022/05/26 09:20:30;;;;;;;2.33;1.25;;;21.30;72.80;;;;;;5011718;28;20028;-69
2022/05/26 09:23:15;;;;;;;2.58;1.33;;;21.30;72.70;;;;;;5011860;28;20529;-70
2022/05/26 09:25:51;;;;;;;2.30;1.30;;;21.30;72.80;;;;;;5011674;28;20034;-70
2022/05/26 09:28:39;;;;;;;3.00;1.63;;;21.40;72.50;;;;;;5010533;28;20453;-69
2022/05/26 09:31:21;;;;;;;2.10;1.40;;;21.40;71.90;;;;;;5009423;28;20026;-71
2022/05/26 09:34:08;;;;;;;2.58;1.50;;;21.40;71.60;;;;;;4999697;28;20510;-70
2022/05/26 09:36:52;;;;;;;2.65;1.60;;;21.50;71.30;;;;;;4991958;28;20072;-70
2022/05/26 09:39:30;;;;;;;3.28;1.60;;;21.70;70.50;;;;;;4993470;28;20536;-69
2022/05/26 09:41:57;;;;;;;3.60;1.70;;;21.80;70.20;;;;;;4995840;28;20034;-69
2022/05/26 09:44:33;;;;;;;2.65;1.30;;;21.90;70.10;;;;;;4995511;28;20039;-69
2022/05/26 09:47:03;;;;;;;1.27;1.00;;;21.90;69.90;;;;;;4995413;28;20429;-70
2022/05/26 09:49:37;;;;;;;2.92;1.40;;;21.90;69.90;;;;;;5009032;28;20489;-69
2022/05/26 09:52:25;;;;;;;2.55;1.38;;;22.00;69.00;;;;;;5007747;28;20049;-69
2022/05/26 09:55:24;;;;;;;3.08;1.58;;;22.00;68.10;;;;;;5007826;28;20473;-70
2022/05/26 09:58:05;;;;;;;2.70;1.45;;;21.90;66.70;;;;;;5002730;28;20034;-70
2022/05/26 10:00:42;;;;;;;2.80;1.30;;;21.80;67.40;;;;;;5015744;28;20036;-69
2022/05/26 10:03:23;;;;;;;3.00;1.50;;;21.90;66.90;;;;;;5029255;28;20026;-70
2022/05/26 10:06:37;;;;;;;3.65;1.20;;;21.90;66.80;;;;;;5024037;28;20073;-70
2022/05/26 10:09:23;;;;;;;1.95;1.45;;;22.10;66.30;;;;;;5009505;28;20038;-70
2022/05/26 10:12:07;;;;;;;2.60;1.30;;;22.10;66.10;;;;;;5014818;28;20033;-69
2022/05/26 10:15:19;;;;;;;1.88;1.40;;;22.10;65.70;;;;;;5014551;28;20516;-70
2022/05/26 10:18:20;;;;;;;5.18;1.70;;;22.20;65.70;;;;;;5011844;28;20111;-69
2022/05/26 10:21:14;;;;;;;2.67;1.50;;;22.20;65.00;;;;;;4995393;28;20164;-69
2022/05/26 10:23:59;;;;;;;1.63;1.40;;;22.20;65.30;;;;;;5010833;28;20067;-69
2022/05/26 10:26:34;;;;;;;3.25;1.52;;;22.20;65.30;;;;;;5020391;28;20065;-69
2022/05/26 10:29:21;;;;;;;4.72;1.38;;;22.10;65.30;;;;;;5034388;28;20026;-70
2022/05/26 10:31:59;;;;;;;3.63;1.48;;;22.10;65.60;;;;;;5032848;28;20022;-68
2022/05/26 10:34:52;;;;;;;4.20;1.70;;;22.00;65.40;;;;;;5014966;28;20041;-69
2022/05/26 10:37:49;;;;;;;3.63;1.83;;;22.00;65.50;;;;;;5022902;28;20025;-70
2022/05/26 10:40:41;;;;;;;2.35;1.55;;;22.00;65.50;;;;;;5014721;28;20037;-70
2022/05/26 10:43:12;;;;;;;4.32;2.00;;;21.90;65.00;;;;;;5020332;28;20120;-69
2022/05/26 10:45:46;;;;;;;4.72;1.90;;;21.90;64.90;;;;;;5027839;28;20041;-70
2022/05/26 10:48:23;;;;;;;2.88;1.70;;;21.90;65.60;;;;;;5032094;28;20029;-70
2022/05/26 10:51:11;;;;;;;3.53;2.05;;;21.80;65.20;;;;;;5025188;28;20034;-69
2022/05/26 10:54:05;;;;;;;4.70;1.70;;;21.80;65.30;;;;;;5015194;28;20077;-69
2022/05/26 10:56:52;;;;;;;4.60;1.70;;;21.90;65.30;;;;;;5007435;28;20117;-69
2022/05/26 10:59:41;;;;;;;2.78;1.60;;;21.90;65.20;;;;;;5015453;28;20053;-69
2022/05/26 11:02:15;;;;;;;3.08;1.60;;;22.00;65.30;;;;;;5023014;28;20030;-69
2022/05/26 11:05:02;;;;;;;3.33;1.60;;;22.00;65.30;;;;;;5016282;28;20045;-70
2022/05/26 11:07:42;;;;;;;2.30;1.67;;;22.10;65.30;;;;;;5032285;28;20041;-69
2022/05/26 11:10:13;;;;;;;2.38;1.55;;;22.10;65.10;;;;;;5018650;28;20057;-69
2022/05/26 11:12:47;;;;;;;2.25;1.58;;;22.20;65.50;;;;;;5011491;28;20042;-70
2022/05/26 11:18:24;;;;;;;4.60;2.00;;;22.30;64.90;;;;;;5013586;28;20045;-69
2022/05/26 11:20:53;;;;;;;2.90;1.75;;;22.40;65.10;;;;;;5023441;28;20427;-69
2022/05/26 11:23:21;;;;;;;3.00;2.33;;;22.50;64.20;;;;;;5033143;28;20022;-70
2022/05/26 11:25:55;;;;;;;2.78;1.63;;;22.40;63.60;;;;;;5013709;28;20065;-67
2022/05/26 11:28:34;;;;;;;3.58;1.65;;;22.40;63.90;;;;;;4999737;28;20045;-68
2022/05/26 11:36:52;;;;;;;2.53;1.60;;;22.50;64.00;;;;;;5029992;28;20416;-69
2022/05/26 11:39:34;;;;;;;4.97;1.75;;;22.50;63.80;;;;;;5030300;28;20033;-69
2022/05/26 11:42:04;;;;;;;5.78;1.92;;;22.50;64.00;;;;;;5011379;28;20429;-70
2022/05/26 11:44:39;;;;;;;3.30;1.80;;;22.50;63.80;;;;;;5013473;28;20030;-70
2022/05/26 11:47:30;;;;;;;2.85;1.60;;;22.50;63.00;;;;;;5011580;28;20033;-70
2022/05/26 11:49:55;;;;;;;5.68;2.40;;;22.50;63.40;;;;;;4998677;28;20113;-70
2022/05/26 11:52:53;;;;;;;4.57;2.15;;;22.40;63.10;;;;;;5013208;28;20145;-70
2022/05/26 11:55:32;;;;;;;5.80;2.25;;;22.30;62.60;;;;;;5012682;28;20022;-70
2022/05/26 11:58:26;;;;;;;5.50;2.35;;;22.20;60.90;;;;;;5012234;28;20032;-70
2022/05/26 12:01:14;;;;;;;4.75;1.40;;;22.10;61.10;;;;;;5008004;28;20129;-69
2022/05/26 12:03:55;;;;;;;4.40;1.85;;;22.00;60.20;;;;;;5011646;28;20062;-69
2022/05/26 12:06:39;;;;;;;3.78;1.80;;;22.10;60.60;;;;;;5012656;28;20025;-69
2022/05/26 12:09:12;;;;;;;5.13;1.40;;;22.20;61.00;;;;;;5012877;28;20050;-69
2022/05/26 12:11:55;;;;;;;4.72;1.80;;;22.30;61.10;;;;;;5031007;28;20040;-69
2022/05/26 12:14:29;;;;;;;3.70;1.85;;;22.30;60.90;;;;;;5014436;28;20029;-69
2022/05/26 12:17:32;;;;;;;3.45;1.77;;;22.40;60.40;;;;;;5032648;28;20037;-69
2022/05/26 12:19:59;;;;;;;2.78;1.50;;;22.40;60.70;;;;;;5030456;28;20040;-69
2022/05/26 12:22:32;;;;;;;3.85;1.77;;;22.50;61.10;;;;;;5018740;28;20044;-70
2022/05/26 12:25:24;;;;;;;2.75;1.70;;;22.60;61.20;;;;;;5017148;28;20345;-70
2022/05/26 12:27:56;;;;;;;3.92;2.20;;;22.70;61.40;;;;;;5013162;28;20030;-71
2022/05/26 12:30:30;;;;;;;3.08;1.88;;;22.90;61.00;;;;;;5031654;28;20036;-71
2022/05/26 12:32:56;;;;;;;4.20;2.38;;;22.90;60.60;;;;;;5026996;28;20033;-71
2022/05/26 12:35:47;;;;;;;4.32;2.00;;;22.90;60.70;;;;;;5028437;28;20033;-70
2022/05/26 12:38:37;;;;;;;2.47;1.70;;;22.90;60.70;;;;;;5024556;28;20030;-71
2022/05/26 12:41:13;;;;;;;4.88;2.20;;;23.00;60.70;;;;;;4992648;28;20108;-71
2022/05/26 12:44:01;;;;;;;4.13;1.90;;;23.20;60.90;;;;;;5022774;28;20116;-71
2022/05/26 12:46:52;;;;;;;2.53;1.55;;;23.20;60.60;;;;;;5031879;28;20041;-70
2022/05/26 12:49:36;;;;;;;6.28;1.90;;;23.30;60.60;;;;;;5029644;28;20032;-70
2022/05/26 12:52:29;;;;;;;4.07;1.83;;;23.40;60.20;;;;;;5029785;28;20463;-71
2022/05/26 12:55:26;;;;;;;6.32;2.60;;;23.50;59.80;;;;;;5030917;28;20054;-70
2022/05/26 12:58:13;;;;;;;6.05;1.70;;;23.60;59.00;;;;;;5005567;28;20064;-71
2022/05/26 13:00:55;;;;;;;2.80;1.77;;;23.70;58.60;;;;;;5020712;28;20117;-71
2022/05/26 13:03:27;;;;;;;4.43;1.90;;;23.80;58.60;;;;;;5012027;28;20022;-69
2022/05/26 13:06:08;;;;;;;2.72;1.70;;;23.90;58.00;;;;;;5011910;28;20033;-70
2022/05/26 13:08:54;;;;;;;5.43;2.00;;;23.90;57.80;;;;;;5015103;28;20033;-70
2022/05/26 13:11:26;;;;;;;4.32;1.77;;;23.90;57.50;;;;;;5027415;28;20108;-70
2022/05/26 13:13:55;;;;;;;5.80;2.20;;;23.70;57.30;;;;;;5017534;28;20038;-70
2022/05/26 13:16:23;;;;;;;3.00;2.05;;;23.70;57.40;;;;;;5027828;28;20044;-70
2022/05/26 13:18:50;;;;;;;3.15;1.88;;;23.50;57.60;;;;;;5028244;28;20056;-71
2022/05/26 13:21:17;;;;;;;4.05;2.00;;;23.40;58.20;;;;;;5028156;28;20057;-71
2022/05/26 13:23:43;;;;;;;3.47;2.05;;;23.40;58.20;;;;;;5022299;28;20105;-70
2022/05/26 13:26:08;;;;;;;7.85;2.38;;;23.30;57.40;;;;;;5031094;28;20120;-70
2022/05/26 13:28:37;;;;;;;7.10;2.25;;;23.30;57.50;;;;;;5029020;28;20025;-70
2022/05/26 13:33:49;;;;;;;7.75;1.98;;;23.60;57.30;;;;;;5014171;28;20038;-69
2022/05/26 13:36:31;;;;;;;5.10;2.00;;;23.60;57.40;;;;;;4993297;28;20034;-68
2022/05/26 13:39:11;;;;;;;3.83;1.88;;;23.50;58.00;;;;;;5019124;28;20022;-68
2022/05/26 13:41:40;;;;;;;4.55;1.73;;;23.50;57.10;;;;;;5002163;28;20030;-68
2022/05/26 13:44:08;;;;;;;4.70;2.08;;;23.30;56.70;;;;;;4991556;28;20497;-67
2022/05/26 13:46:38;;;;;;;5.15;1.77;;;23.20;56.30;;;;;;4999645;28;20140;-68
2022/05/26 13:49:19;;;;;;;5.88;1.98;;;23.10;56.40;;;;;;5011238;28;20022;-68
2022/05/26 13:51:53;;;;;;;6.93;2.67;;;23.10;56.60;;;;;;5020574;28;20038;-69
2022/05/26 13:54:36;;;;;;;4.95;2.55;;;23.10;55.80;;;;;;4998771;28;20031;-69
2022/05/26 13:57:10;;;;;;;4.43;2.10;;;23.10;56.90;;;;;;5015407;28;20045;-69
2022/05/26 13:59:41;;;;;;;5.57;2.08;;;23.30;57.80;;;;;;5031156;28;20029;-69